Time;durP1;ratioP1;P1;durP2;ratioP2;P2;SDS_P1;SDS_P2;PMS_P1;PMS_P2;Temp;Humidity;BMP_temperature;BMP_pressure;BME280_temperature;BME280_humidity;BME280_pressure;Samples;Min_cycle;Max_cycle;Signal;HPM_P1;HPM_P2
2022/02/19 00:01:24;;;;;;;7.97;1.38;;;;;11.90;100058.00;;;;5038817;28;20685;-81
2022/02/19 00:03:51;;;;;;;6.82;1.40;;;;;11.90;100054.00;;;;5040048;28;20196;-81
2022/02/19 00:06:19;;;;;;;5.15;1.38;;;;;11.90;100070.00;;;;5051146;28;20207;-81
2022/02/19 00:08:46;;;;;;;3.63;0.82;;;;;11.80;100080.00;;;;5046080;28;20196;-80
2022/02/19 00:11:13;;;;;;;4.35;1.23;;;;;11.80;100067.00;;;;5045338;28;20675;-81
2022/02/19 00:13:42;;;;;;;8.13;1.40;;;;;11.80;100085.00;;;;5042453;28;20192;-82
2022/02/19 00:16:09;;;;;;;9.38;1.13;;;;;11.80;100089.00;;;;5035331;28;20206;-81
2022/02/19 00:18:38;;;;;;;5.93;0.98;;;;;11.80;100086.00;;;;5046676;28;20590;-81
2022/02/19 00:21:05;;;;;;;6.38;1.33;;;;;11.70;100100.00;;;;5049616;28;20227;-82
2022/02/19 00:23:32;;;;;;;4.22;1.17;;;;;11.70;100096.00;;;;5057961;28;20196;-83
2022/02/19 00:26:00;;;;;;;3.35;0.73;;;;;11.70;100109.00;;;;5030662;28;20695;-81
2022/02/19 00:28:27;;;;;;;3.10;0.82;;;;;11.70;100123.00;;;;5049377;28;20207;-81
2022/02/19 00:30:57;;;;;;;2.20;1.00;;;;;11.70;100126.00;;;;5044712;28;20200;-82
2022/02/19 00:33:24;;;;;;;11.05;1.63;;;;;11.70;100127.00;;;;5048028;28;20192;-81
2022/02/19 00:35:51;;;;;;;5.57;1.10;;;;;11.70;100130.00;;;;5042501;28;20786;-81
2022/02/19 00:38:20;;;;;;;3.95;1.10;;;;;11.70;100133.00;;;;5037315;28;20621;-80
2022/02/19 00:40:48;;;;;;;6.10;1.00;;;;;11.60;100150.00;;;;5048672;28;20590;-79
2022/02/19 00:43:16;;;;;;;3.15;0.77;;;;;11.60;100157.00;;;;5049285;28;20207;-80
2022/02/19 00:45:43;;;;;;;2.90;0.85;;;;;11.60;100164.00;;;;5048256;28;20195;-81
2022/02/19 00:48:13;;;;;;;4.93;0.85;;;;;11.60;100140.00;;;;5047218;28;20283;-80
2022/02/19 00:50:41;;;;;;;9.75;1.10;;;;;11.60;100191.00;;;;5044497;28;20313;-80
2022/02/19 00:53:08;;;;;;;6.00;1.13;;;;;11.60;100185.00;;;;5041497;28;20570;-80
2022/02/19 00:55:35;;;;;;;4.05;1.05;;;;;11.70;100195.00;;;;5030102;28;20192;-80
2022/02/19 00:58:03;;;;;;;6.00;0.93;;;;;11.70;100193.00;;;;5036239;28;20204;-82
2022/02/19 01:00:30;;;;;;;4.20;0.55;;;;;11.60;100201.00;;;;5042717;28;20228;-81
2022/02/19 01:02:57;;;;;;;5.68;1.33;;;;;11.60;100187.00;;;;5047288;28;20191;-82
2022/02/19 01:05:26;;;;;;;4.72;1.00;;;;;11.60;100194.00;;;;5039090;28;20555;-81
2022/02/19 01:07:54;;;;;;;4.70;1.30;;;;;11.60;100221.00;;;;5047994;28;20657;-80
2022/02/19 01:10:22;;;;;;;4.35;1.40;;;;;11.60;100216.00;;;;5047903;28;20203;-81
2022/02/19 01:12:50;;;;;;;2.83;1.60;;;;;11.60;100233.00;;;;5048845;28;20203;-80
2022/02/19 01:15:17;;;;;;;6.85;0.80;;;;;11.60;100229.00;;;;5048837;28;20199;-82
2022/02/19 01:17:45;;;;;;;2.97;0.88;;;;;11.60;100265.00;;;;5033566;28;20231;-81
2022/02/19 01:20:13;;;;;;;6.88;1.25;;;;;11.50;100258.00;;;;5034979;28;20227;-80
2022/02/19 01:22:42;;;;;;;2.05;0.50;;;;;11.50;100252.00;;;;5047897;28;20210;-81
2022/02/19 01:25:11;;;;;;;2.92;0.70;;;;;11.50;100258.00;;;;5048721;28;20243;-81
2022/02/19 01:27:38;;;;;;;2.78;0.88;;;;;11.50;100250.00;;;;5050814;28;20274;-80
2022/02/19 01:30:07;;;;;;;7.32;0.85;;;;;11.50;100252.00;;;;5041095;28;20187;-81
2022/02/19 01:32:35;;;;;;;3.38;0.93;;;;;11.50;100272.00;;;;5033332;28;20226;-80
2022/02/19 01:35:03;;;;;;;2.38;1.00;;;;;11.60;100268.00;;;;5039219;28;20214;-80
2022/02/19 01:37:30;;;;;;;4.28;0.80;;;;;11.60;100276.00;;;;5047277;28;20207;-81
2022/02/19 01:39:58;;;;;;;5.78;0.85;;;;;11.60;100301.00;;;;5048499;28;20209;-80
2022/02/19 01:42:27;;;;;;;3.20;0.63;;;;;11.60;100296.00;;;;5044230;28;20219;-81
2022/02/19 01:44:54;;;;;;;2.92;0.50;;;;;11.70;100295.00;;;;5046181;28;20731;-81
2022/02/19 01:47:22;;;;;;;4.60;0.77;;;;;11.70;100298.00;;;;5047962;28;20233;-81
2022/02/19 01:49:49;;;;;;;5.25;0.70;;;;;11.70;100323.00;;;;5047608;28;20246;-81
2022/02/19 01:52:18;;;;;;;2.58;1.08;;;;;11.60;100317.00;;;;5044029;28;20266;-80
2022/02/19 01:54:47;;;;;;;2.40;0.60;;;;;11.60;100323.00;;;;5030114;28;20196;-81
2022/02/19 01:57:16;;;;;;;2.45;0.75;;;;;11.60;100325.00;;;;5028459;28;20677;-82
2022/02/19 01:59:43;;;;;;;8.80;1.10;;;;;11.60;100343.00;;;;5033524;28;20207;-82
2022/02/19 02:02:10;;;;;;;6.03;1.13;;;;;11.60;100345.00;;;;5034637;28;20224;-80
2022/02/19 02:04:38;;;;;;;2.70;0.82;;;;;11.60;100343.00;;;;5029806;28;20202;-81
2022/02/19 02:07:05;;;;;;;5.38;0.70;;;;;11.70;100343.00;;;;5030109;28;20203;-80
2022/02/19 02:09:35;;;;;;;5.03;1.05;;;;;11.60;100337.00;;;;5028617;28;20287;-80
2022/02/19 02:12:03;;;;;;;4.80;1.02;;;;;11.60;100346.00;;;;5042368;28;20654;-80
2022/02/19 02:14:37;;;;;;;4.85;1.02;;;;;11.60;100366.00;;;;5047317;28;20226;-80
2022/02/19 02:17:04;;;;;;;2.35;1.08;;;;;11.60;100380.00;;;;5046400;28;20227;-81
2022/02/19 02:19:31;;;;;;;3.95;0.80;;;;;11.60;100376.00;;;;5045498;28;20200;-82
2022/02/19 02:22:00;;;;;;;4.85;0.77;;;;;11.60;100386.00;;;;5047556;28;20222;-81
2022/02/19 02:24:28;;;;;;;2.35;0.57;;;;;11.50;100381.00;;;;5040341;28;20191;-81
2022/02/19 02:26:56;;;;;;;3.30;0.85;;;;;11.50;100370.00;;;;5047263;28;20589;-82
2022/02/19 02:29:24;;;;;;;6.03;1.20;;;;;11.50;100385.00;;;;5039947;28;20196;-79
2022/02/19 02:31:51;;;;;;;1.38;0.52;;;;;11.50;100395.00;;;;5038067;28;20199;-80
2022/02/19 02:34:19;;;;;;;1.88;0.45;;;;;11.50;100408.00;;;;5035804;28;20546;-81
2022/02/19 02:36:46;;;;;;;4.32;1.13;;;;;11.60;100412.00;;;;5043733;28;20291;-81
2022/02/19 02:39:15;;;;;;;1.98;0.70;;;;;11.50;100405.00;;;;5047362;28;20199;-81
2022/02/19 02:41:42;;;;;;;4.15;0.90;;;;;11.50;100403.00;;;;5046194;28;20293;-80
2022/02/19 02:44:09;;;;;;;6.35;1.10;;;;;11.50;100411.00;;;;5042690;28;20247;-81
2022/02/19 02:46:37;;;;;;;4.15;1.33;;;;;11.50;100419.00;;;;5043187;28;20199;-81
2022/02/19 02:49:05;;;;;;;2.40;0.95;;;;;11.50;100429.00;;;;5047475;28;20203;-81
2022/02/19 02:51:32;;;;;;;4.50;1.08;;;;;11.50;100426.00;;;;5046975;28;20199;-80
2022/02/19 02:53:59;;;;;;;3.85;0.82;;;;;11.50;100431.00;;;;5044606;28;20220;-81
2022/02/19 02:56:28;;;;;;;3.78;0.85;;;;;11.50;100443.00;;;;5038806;28;20193;-82
2022/02/19 02:58:55;;;;;;;6.97;0.80;;;;;11.50;100446.00;;;;5034874;28;20391;-81
2022/02/19 03:01:22;;;;;;;4.68;0.88;;;;;11.50;100471.00;;;;5046681;28;20216;-81
2022/02/19 03:03:49;;;;;;;5.47;0.88;;;;;11.50;100455.00;;;;5048106;28;20689;-81
2022/02/19 03:06:16;;;;;;;6.85;1.17;;;;;11.50;100453.00;;;;5030594;28;20246;-81
2022/02/19 03:08:44;;;;;;;8.10;1.33;;;;;11.50;100461.00;;;;5040121;28;20196;-81
2022/02/19 03:11:11;;;;;;;3.88;0.50;;;;;11.50;100459.00;;;;5045953;28;20570;-80
2022/02/19 03:13:40;;;;;;;5.35;0.90;;;;;11.50;100467.00;;;;5047116;28;20569;-80
2022/02/19 03:16:07;;;;;;;3.35;1.13;;;;;11.60;100472.00;;;;5047328;28;20204;-81
2022/02/19 03:18:34;;;;;;;3.45;0.88;;;;;11.50;100476.00;;;;5048476;28;20232;-80
2022/02/19 03:21:02;;;;;;;7.78;1.27;;;;;11.50;100489.00;;;;5042871;28;20229;-80
2022/02/19 03:23:29;;;;;;;4.72;0.93;;;;;11.50;100486.00;;;;5048034;28;20199;-81
2022/02/19 03:25:56;;;;;;;4.63;0.95;;;;;11.50;100496.00;;;;5047792;28;20278;-82
2022/02/19 03:28:23;;;;;;;6.53;0.88;;;;;11.50;100499.00;;;;5038236;28;20580;-81
2022/02/19 03:30:52;;;;;;;5.43;1.20;;;;;11.40;100508.00;;;;5040223;28;20211;-80
2022/02/19 03:33:19;;;;;;;6.32;0.90;;;;;11.50;100519.00;;;;5050228;28;20588;-80
2022/02/19 03:35:46;;;;;;;5.10;1.30;;;;;11.50;100538.00;;;;5048924;28;20195;-80
2022/02/19 03:38:13;;;;;;;6.15;1.38;;;;;11.50;100530.00;;;;5041706;28;20187;-81
2022/02/19 03:40:41;;;;;;;6.40;1.20;;;;;11.50;100534.00;;;;5051578;28;20208;-81
2022/02/19 03:43:08;;;;;;;4.72;0.88;;;;;11.50;100558.00;;;;5050556;28;20612;-81
2022/02/19 03:45:37;;;;;;;4.43;1.00;;;;;11.50;100534.00;;;;5048756;28;20393;-79
2022/02/19 03:48:06;;;;;;;8.82;1.35;;;;;11.50;100560.00;;;;5030878;28;20681;-80
2022/02/19 03:50:34;;;;;;;10.50;1.00;;;;;11.50;100566.00;;;;5033154;28;20196;-81
2022/02/19 03:53:01;;;;;;;2.92;0.68;;;;;11.50;100564.00;;;;5049708;28;20215;-81
2022/02/19 03:55:28;;;;;;;3.10;0.80;;;;;11.50;100562.00;;;;5043474;28;20612;-81
2022/02/19 03:57:55;;;;;;;5.20;1.25;;;;;11.50;100571.00;;;;5047391;28;20752;-80
2022/02/19 04:00:23;;;;;;;8.77;0.95;;;;;11.50;100570.00;;;;5049968;28;20211;-80
2022/02/19 04:02:50;;;;;;;3.80;0.98;;;;;11.50;100579.00;;;;5047119;28;20254;-80
2022/02/19 04:05:19;;;;;;;6.53;1.27;;;;;11.50;100597.00;;;;5040596;28;20741;-80
2022/02/19 04:07:47;;;;;;;3.42;1.10;;;;;11.50;100596.00;;;;5049510;28;20191;-81
2022/02/19 04:10:15;;;;;;;7.40;0.95;;;;;11.50;100594.00;;;;5039762;28;20204;-80
2022/02/19 04:12:43;;;;;;;4.10;1.02;;;;;11.50;100608.00;;;;5042207;28;20197;-81
2022/02/19 04:15:11;;;;;;;4.53;0.70;;;;;11.50;100612.00;;;;5050911;28;20640;-80
2022/02/19 04:17:39;;;;;;;4.38;0.80;;;;;11.50;100628.00;;;;5043490;28;20628;-81
2022/02/19 04:20:08;;;;;;;5.63;1.63;;;;;11.50;100622.00;;;;5036300;28;20568;-80
2022/02/19 04:22:39;;;;;;;6.32;1.10;;;;;11.50;100632.00;;;;5047916;28;20223;-81
2022/02/19 04:25:06;;;;;;;7.55;1.00;;;;;11.50;100638.00;;;;5030909;28;20310;-80
2022/02/19 04:27:34;;;;;;;3.60;0.93;;;;;11.40;100651.00;;;;5030645;28;20228;-81
2022/02/19 04:30:01;;;;;;;2.15;0.68;;;;;11.40;100647.00;;;;5029758;28;20212;-80
2022/02/19 04:32:29;;;;;;;3.10;1.10;;;;;11.40;100651.00;;;;5035064;28;20666;-80
2022/02/19 04:34:56;;;;;;;5.85;0.80;;;;;11.40;100663.00;;;;5047565;28;20250;-81
2022/02/19 04:37:23;;;;;;;3.35;0.85;;;;;11.40;100660.00;;;;5043042;28;20201;-80
2022/02/19 04:39:52;;;;;;;2.42;0.80;;;;;11.40;100660.00;;;;5029681;28;20200;-81
2022/02/19 04:42:19;;;;;;;4.95;1.27;;;;;11.40;100672.00;;;;5030509;28;20668;-79
2022/02/19 04:44:47;;;;;;;4.03;0.82;;;;;11.40;100670.00;;;;5029925;28;20207;-80
2022/02/19 04:47:14;;;;;;;2.80;0.60;;;;;11.40;100671.00;;;;5044950;28;20571;-81
2022/02/19 04:49:41;;;;;;;4.05;0.88;;;;;11.40;100692.00;;;;5032067;28;20212;-81
2022/02/19 04:52:09;;;;;;;4.47;1.17;;;;;11.40;100689.00;;;;5049017;28;20553;-81
2022/02/19 04:54:36;;;;;;;4.85;1.10;;;;;11.40;100700.00;;;;5031597;28;20211;-81
2022/02/19 04:57:05;;;;;;;4.15;0.70;;;;;11.40;100693.00;;;;5045967;28;20203;-81
2022/02/19 04:59:33;;;;;;;4.97;0.70;;;;;11.40;100708.00;;;;5046919;28;20192;-81
2022/02/19 05:02:00;;;;;;;1.67;0.65;;;;;11.40;100717.00;;;;5047027;28;20231;-81
2022/02/19 05:04:27;;;;;;;2.20;0.73;;;;;11.40;100706.00;;;;5049217;28;20200;-80
2022/02/19 05:06:54;;;;;;;3.15;0.43;;;;;11.40;100719.00;;;;5047767;28;20207;-81
2022/02/19 05:09:21;;;;;;;3.60;0.52;;;;;11.40;100714.00;;;;5048812;28;20511;-81
2022/02/19 05:11:49;;;;;;;2.78;0.80;;;;;11.40;100716.00;;;;5046143;28;20249;-80
2022/02/19 05:14:17;;;;;;;2.50;0.40;;;;;11.40;100721.00;;;;5046119;28;20676;-81
2022/02/19 05:16:44;;;;;;;2.95;1.08;;;;;11.30;100712.00;;;;5048539;28;20261;-81
2022/02/19 05:19:12;;;;;;;4.60;0.70;;;;;11.30;100724.00;;;;5031864;28;20207;-81
2022/02/19 05:21:39;;;;;;;2.60;0.52;;;;;11.40;100724.00;;;;5047074;28;20573;-81
2022/02/19 05:24:06;;;;;;;2.10;0.73;;;;;11.40;100736.00;;;;5046902;28;20203;-81
2022/02/19 05:26:34;;;;;;;5.20;0.95;;;;;11.40;100733.00;;;;5046525;28;20219;-81
2022/02/19 05:29:01;;;;;;;4.25;0.70;;;;;11.40;100724.00;;;;5047572;28;20616;-81
2022/02/19 05:31:29;;;;;;;5.60;0.70;;;;;11.30;100747.00;;;;5047554;28;20207;-81
2022/02/19 05:33:57;;;;;;;3.15;0.93;;;;;11.30;100744.00;;;;5046378;28;20203;-81
2022/02/19 05:36:24;;;;;;;8.48;1.10;;;;;11.30;100745.00;;;;5038921;28;20192;-80
2022/02/19 05:38:51;;;;;;;5.10;0.90;;;;;11.30;100745.00;;;;5038956;28;20487;-80
2022/02/19 05:41:19;;;;;;;6.32;1.00;;;;;11.30;100773.00;;;;5041290;28;20212;-82
2022/02/19 05:43:46;;;;;;;7.63;0.98;;;;;11.30;100758.00;;;;5048552;28;20192;-80
2022/02/19 05:46:13;;;;;;;4.07;0.82;;;;;11.30;100767.00;;;;5038037;28;20597;-81
2022/02/19 05:48:42;;;;;;;4.45;0.85;;;;;11.40;100763.00;;;;5046995;28;20218;-81
2022/02/19 05:51:09;;;;;;;3.83;0.85;;;;;11.40;100774.00;;;;5046397;28;20210;-81
2022/02/19 05:53:36;;;;;;;3.50;0.75;;;;;11.40;100773.00;;;;5044452;28;20574;-81
2022/02/19 05:56:04;;;;;;;2.67;1.00;;;;;11.40;100789.00;;;;5046833;28;20253;-82
2022/02/19 05:58:31;;;;;;;2.97;1.42;;;;;11.40;100783.00;;;;5044970;28;20208;-82
2022/02/19 06:01:01;;;;;;;1.67;0.47;;;;;11.40;100773.00;;;;5047234;28;20192;-82
2022/02/19 06:03:28;;;;;;;5.93;0.93;;;;;11.40;100791.00;;;;5056911;28;20207;-81
2022/02/19 06:05:57;;;;;;;6.82;1.15;;;;;11.40;100789.00;;;;5046361;28;20574;-81
2022/02/19 06:08:24;;;;;;;4.88;0.68;;;;;11.50;100790.00;;;;5039302;28;20188;-80
2022/02/19 06:10:51;;;;;;;3.40;1.02;;;;;11.50;100791.00;;;;5047483;28;20203;-81
2022/02/19 06:13:19;;;;;;;5.40;0.70;;;;;11.50;100793.00;;;;5043959;28;20327;-81
2022/02/19 06:15:46;;;;;;;3.33;0.90;;;;;11.50;100797.00;;;;5042500;28;20692;-81
2022/02/19 06:18:13;;;;;;;3.80;0.68;;;;;11.60;100797.00;;;;5035741;28;20795;-81
2022/02/19 06:20:40;;;;;;;1.52;0.38;;;;;11.60;100805.00;;;;5047889;28;20201;-82
2022/02/19 06:23:09;;;;;;;4.18;0.70;;;;;11.60;100812.00;;;;5029769;28;20219;-81
2022/02/19 06:25:36;;;;;;;4.18;1.00;;;;;11.60;100812.00;;;;5041468;28;20199;-81
2022/02/19 06:28:04;;;;;;;3.30;0.57;;;;;11.60;100812.00;;;;5047477;28;20196;-81
2022/02/19 06:30:31;;;;;;;6.50;1.00;;;;;11.60;100827.00;;;;5032124;28;20196;-82
2022/02/19 06:32:59;;;;;;;2.10;0.55;;;;;11.60;100818.00;;;;5045898;28;20674;-81
2022/02/19 06:35:26;;;;;;;5.32;0.73;;;;;11.60;100827.00;;;;5035248;28;20249;-81
2022/02/19 06:37:53;;;;;;;4.32;0.82;;;;;11.60;100829.00;;;;5045745;28;20196;-81
2022/02/19 06:40:22;;;;;;;3.38;0.85;;;;;11.60;100844.00;;;;5045463;28;20195;-82
2022/02/19 06:42:49;;;;;;;3.72;0.95;;;;;11.60;100845.00;;;;5047257;28;20230;-81
2022/02/19 06:45:16;;;;;;;1.63;0.80;;;;;11.60;100864.00;;;;5042567;28;20211;-82
2022/02/19 06:47:44;;;;;;;3.03;0.57;;;;;11.60;100862.00;;;;5042433;28;20221;-81
2022/02/19 06:50:11;;;;;;;3.45;0.60;;;;;11.60;100864.00;;;;5048700;28;20204;-81
2022/02/19 06:52:39;;;;;;;6.05;0.77;;;;;11.60;100871.00;;;;5028750;28;21220;-82
2022/02/19 06:55:07;;;;;;;4.28;0.82;;;;;11.60;100886.00;;;;5028781;28;20211;-81
2022/02/19 06:57:36;;;;;;;2.47;0.75;;;;;11.60;100877.00;;;;5043183;28;20601;-81
2022/02/19 07:00:05;;;;;;;4.88;1.05;;;;;11.60;100875.00;;;;5047409;28;20203;-81
2022/02/19 07:02:32;;;;;;;7.05;0.85;;;;;11.60;100890.00;;;;5038367;28;20230;-81
2022/02/19 07:04:59;;;;;;;3.80;0.88;;;;;11.60;100888.00;;;;5051368;28;20200;-81
2022/02/19 07:07:27;;;;;;;4.55;1.17;;;;;11.60;100892.00;;;;5041878;28;20192;-82
2022/02/19 07:09:54;;;;;;;2.85;0.55;;;;;11.60;100899.00;;;;5046857;28;20211;-82
2022/02/19 07:12:21;;;;;;;8.32;0.90;;;;;11.60;100904.00;;;;5048797;28;20623;-81
2022/02/19 07:14:50;;;;;;;4.07;0.90;;;;;11.60;100906.00;;;;5033476;28;20192;-82
2022/02/19 07:17:18;;;;;;;3.72;1.40;;;;;11.60;100909.00;;;;5037129;28;20639;-81
2022/02/19 07:19:46;;;;;;;3.83;0.82;;;;;11.60;100904.00;;;;5051510;28;20192;-82
2022/02/19 07:22:13;;;;;;;2.13;0.80;;;;;11.60;100921.00;;;;5045155;28;20230;-82
2022/02/19 07:24:40;;;;;;;3.85;0.98;;;;;11.60;100919.00;;;;5044238;28;20207;-79
2022/02/19 07:27:09;;;;;;;7.40;1.15;;;;;11.60;100927.00;;;;5046525;28;20196;-80
2022/02/19 07:29:36;;;;;;;3.85;1.33;;;;;11.60;100937.00;;;;5050372;28;20227;-80
2022/02/19 07:32:06;;;;;;;3.45;1.00;;;;;11.60;100934.00;;;;5047243;28;20245;-80
2022/02/19 07:34:33;;;;;;;1.92;0.68;;;;;11.60;100934.00;;;;5031429;28;20728;-80
2022/02/19 07:37:02;;;;;;;4.65;1.05;;;;;11.70;100940.00;;;;5036323;28;20574;-80
2022/02/19 07:39:30;;;;;;;5.05;0.80;;;;;11.70;100943.00;;;;5035484;28;20417;-80
2022/02/19 07:41:57;;;;;;;3.97;0.77;;;;;11.70;100952.00;;;;5031709;28;20212;-80
2022/02/19 07:44:25;;;;;;;3.42;1.00;;;;;11.70;100947.00;;;;5031008;28;20196;-80
2022/02/19 07:46:52;;;;;;;7.22;1.15;;;;;11.70;100956.00;;;;5030559;28;20204;-81
2022/02/19 08:00:38;;;;;;;2.28;0.50;;;;;11.80;100979.00;;;;5009457;28;21043;-82
2022/02/19 08:03:07;;;;;;;4.55;0.70;;;;;11.90;100977.00;;;;5043106;28;20219;-82
2022/02/19 08:05:36;;;;;;;2.75;0.63;;;;;11.90;100981.00;;;;5038906;28;20207;-80
2022/02/19 08:08:03;;;;;;;2.70;0.70;;;;;11.90;100981.00;;;;5045319;28;20544;-80
2022/02/19 08:10:30;;;;;;;3.28;0.50;;;;;12.00;100986.00;;;;5050103;28;20736;-80
2022/02/19 08:12:58;;;;;;;4.95;0.77;;;;;12.00;100996.00;;;;5047699;28;20290;-80
2022/02/19 08:15:25;;;;;;;1.83;0.32;;;;;12.10;101003.00;;;;5062510;28;20575;-80
2022/02/19 08:17:52;;;;;;;2.53;0.70;;;;;12.10;100998.00;;;;5069866;28;20241;-80
2022/02/19 08:20:19;;;;;;;2.83;0.85;;;;;12.10;100996.00;;;;5056679;28;20200;-81
2022/02/19 08:22:48;;;;;;;4.30;0.55;;;;;12.10;101005.00;;;;5035339;28;20228;-80
2022/02/19 08:25:15;;;;;;;3.05;0.75;;;;;12.20;101011.00;;;;5044896;28;20204;-81
2022/02/19 08:27:42;;;;;;;4.00;0.70;;;;;12.20;101004.00;;;;5039074;28;20565;-80
2022/02/19 08:30:11;;;;;;;5.68;0.90;;;;;12.20;101012.00;;;;5039524;28;20618;-80
2022/02/19 08:32:38;;;;;;;2.95;0.35;;;;;12.20;101017.00;;;;5036690;28;20200;-81
2022/02/19 08:35:07;;;;;;;5.30;0.60;;;;;12.30;101023.00;;;;5029352;28;20196;-80
2022/02/19 08:37:34;;;;;;;4.00;0.85;;;;;12.30;101022.00;;;;5042814;28;20282;-81
2022/02/19 08:40:03;;;;;;;4.28;0.80;;;;;12.30;101017.00;;;;5036503;28;20662;-81
2022/02/19 08:42:32;;;;;;;1.60;0.40;;;;;12.40;101029.00;;;;5035713;28;20235;-83
2022/02/19 08:44:59;;;;;;;5.38;0.60;;;;;12.40;101041.00;;;;5040114;28;20196;-82
2022/02/19 08:47:26;;;;;;;9.43;0.77;;;;;12.40;101038.00;;;;5050998;28;20218;-82
2022/02/19 08:49:54;;;;;;;5.85;0.80;;;;;12.40;101046.00;;;;5067755;28;20202;-82
2022/02/19 08:52:21;;;;;;;3.42;1.15;;;;;12.50;101041.00;;;;5039326;28;20197;-81
2022/02/19 08:54:48;;;;;;;4.88;0.73;;;;;12.50;101051.00;;;;5041477;28;20194;-82
2022/02/19 08:57:17;;;;;;;6.53;1.25;;;;;12.50;101056.00;;;;5038879;28;20204;-80
2022/02/19 08:59:44;;;;;;;2.97;0.43;;;;;12.60;101056.00;;;;5041139;28;20296;-81
2022/02/19 09:02:11;;;;;;;2.60;0.98;;;;;12.60;101056.00;;;;5052453;28;20191;-82
2022/02/19 09:04:39;;;;;;;2.80;0.70;;;;;12.60;101047.00;;;;5069244;28;20198;-82
2022/02/19 09:07:06;;;;;;;7.55;1.30;;;;;12.60;101062.00;;;;5032931;28;20200;-83
2022/02/19 09:09:36;;;;;;;4.78;0.82;;;;;12.70;101059.00;;;;5030177;28;20196;-85
2022/02/19 09:12:05;;;;;;;1.80;0.57;;;;;12.70;101054.00;;;;5036421;28;20569;-84
2022/02/19 09:14:33;;;;;;;6.03;0.90;;;;;12.80;101060.00;;;;5044090;28;20218;-80
2022/02/19 09:17:01;;;;;;;4.55;0.68;;;;;12.90;101055.00;;;;5048883;28;20239;-82
2022/02/19 09:19:28;;;;;;;4.10;1.27;;;;;13.00;101054.00;;;;5050175;28;20261;-81
2022/02/19 09:21:56;;;;;;;2.03;0.43;;;;;13.10;101062.00;;;;5047991;28;20618;-81
2022/02/19 09:24:24;;;;;;;6.47;0.77;;;;;13.10;101056.00;;;;5031153;28;20220;-80
2022/02/19 09:26:51;;;;;;;4.40;0.85;;;;;13.20;101051.00;;;;5057293;28;20198;-81
2022/02/19 09:29:19;;;;;;;5.07;0.55;;;;;13.30;101066.00;;;;5053508;28;20211;-79
2022/02/19 09:31:47;;;;;;;2.22;0.70;;;;;13.40;101068.00;;;;5042531;28;20200;-79
2022/02/19 09:34:14;;;;;;;3.67;0.50;;;;;13.50;101071.00;;;;5031519;28;20207;-80
2022/02/19 09:36:42;;;;;;;2.38;1.05;;;;;13.60;101068.00;;;;5038956;28;20196;-79
2022/02/19 09:39:09;;;;;;;4.57;0.90;;;;;13.60;101074.00;;;;5047870;28;20208;-79
2022/02/19 09:41:36;;;;;;;3.17;0.80;;;;;13.70;101074.00;;;;5059799;28;20697;-80
2022/02/19 09:44:05;;;;;;;2.45;0.60;;;;;13.70;101073.00;;;;5059360;28;20226;-77
2022/02/19 09:46:33;;;;;;;3.38;0.55;;;;;13.70;101081.00;;;;5044419;28;20211;-77
2022/02/19 09:49:04;;;;;;;3.25;0.45;;;;;13.70;101073.00;;;;5040409;28;20638;-77
2022/02/19 09:51:32;;;;;;;3.85;0.70;;;;;13.80;101069.00;;;;5049150;28;20249;-77
2022/02/19 09:53:59;;;;;;;2.72;0.90;;;;;13.80;101081.00;;;;5042579;28;20192;-77
2022/02/19 09:56:28;;;;;;;4.28;0.63;;;;;13.90;101091.00;;;;5041402;28;20193;-77
2022/02/19 09:58:55;;;;;;;4.78;0.70;;;;;14.00;101076.00;;;;5037990;28;20242;-75
2022/02/19 10:01:31;;;;;;;5.75;1.40;;;;;13.90;101085.00;;;;5054801;28;20604;-77
2022/02/19 10:04:01;;;;;;;4.15;1.15;;;;;14.00;101080.00;;;;5054325;28;20230;-78
2022/02/19 10:06:32;;;;;;;6.00;0.90;;;;;14.00;101071.00;;;;5035384;28;20617;-78
2022/02/19 10:09:11;;;;;;;1.92;0.52;;;;;14.00;101076.00;;;;5035103;28;20208;-79
2022/02/19 10:11:39;;;;;;;4.35;0.85;;;;;14.10;101088.00;;;;5037090;28;20196;-79
2022/02/19 10:14:24;;;;;;;5.82;1.02;;;;;14.00;101081.00;;;;5042752;28;20191;-78
2022/02/19 10:17:15;;;;;;;6.47;0.88;;;;;14.10;101075.00;;;;5051147;28;20224;-80
2022/02/19 10:19:57;;;;;;;4.30;1.02;;;;;14.20;101091.00;;;;5055424;28;20207;-79
2022/02/19 10:22:28;;;;;;;2.53;0.88;;;;;14.20;101102.00;;;;5046245;28;20198;-78
2022/02/19 10:24:57;;;;;;;4.30;0.80;;;;;14.30;101082.00;;;;5042711;28;20219;-82
2022/02/19 10:27:40;;;;;;;1.92;0.32;;;;;14.30;101093.00;;;;5050976;28;20204;-81
2022/02/19 10:30:08;;;;;;;4.53;0.50;;;;;14.40;101088.00;;;;5041326;28;20210;-80
2022/02/19 10:32:52;;;;;;;1.75;0.65;;;;;14.40;101092.00;;;;5047815;28;20226;-78
2022/02/19 10:35:20;;;;;;;3.58;0.50;;;;;14.60;101084.00;;;;5054375;28;20207;-82
2022/02/19 10:37:51;;;;;;;5.07;1.15;;;;;14.60;101083.00;;;;5047274;28;20329;-79
2022/02/19 10:40:43;;;;;;;2.55;0.73;;;;;14.60;101110.00;;;;5044954;28;20195;-79
2022/02/19 10:43:11;;;;;;;2.20;0.47;;;;;14.70;101094.00;;;;5045731;28;21025;-79
2022/02/19 10:45:52;;;;;;;1.48;0.40;;;;;14.70;101126.00;;;;5038319;28;20207;-79
2022/02/19 10:48:24;;;;;;;5.80;0.73;;;;;14.70;101134.00;;;;5045325;28;20218;-78
2022/02/19 10:50:52;;;;;;;1.83;0.65;;;;;14.80;101123.00;;;;5043354;28;20272;-78
2022/02/19 10:53:25;;;;;;;3.20;0.90;;;;;14.70;101125.00;;;;5036446;28;20200;-77
2022/02/19 10:55:54;;;;;;;4.82;1.08;;;;;14.80;101133.00;;;;5033041;28;20682;-79
2022/02/19 10:58:21;;;;;;;3.30;0.75;;;;;14.80;101125.00;;;;5043724;28;20200;-78
2022/02/19 11:00:49;;;;;;;3.67;0.73;;;;;14.90;101131.00;;;;5035187;28;21092;-77
2022/02/19 11:03:17;;;;;;;5.18;0.90;;;;;14.90;101121.00;;;;5032442;28;20227;-80
2022/02/19 11:05:44;;;;;;;2.75;0.45;;;;;14.90;101117.00;;;;5041176;28;20626;-81
2022/02/19 11:08:12;;;;;;;2.97;0.60;;;;;14.90;101131.00;;;;5047772;28;20200;-80
2022/02/19 11:10:41;;;;;;;3.05;0.73;;;;;15.00;101147.00;;;;5047990;28;20203;-79
2022/02/19 11:13:08;;;;;;;3.20;0.52;;;;;15.00;101146.00;;;;5050741;28;20207;-80
2022/02/19 11:15:36;;;;;;;3.58;0.70;;;;;15.00;101149.00;;;;5043890;28;20204;-78
2022/02/19 11:18:07;;;;;;;1.98;0.45;;;;;15.00;101138.00;;;;5044931;28;20307;-78
2022/02/19 11:20:35;;;;;;;3.85;0.90;;;;;15.00;101141.00;;;;5055752;28;20199;-79
2022/02/19 11:23:04;;;;;;;2.28;0.68;;;;;14.90;101130.00;;;;5044961;28;20199;-79
2022/02/19 11:25:35;;;;;;;2.85;0.88;;;;;14.90;101136.00;;;;5052480;28;20216;-78
2022/02/19 11:28:11;;;;;;;3.58;0.60;;;;;14.80;101129.00;;;;5032291;28;20200;-83
2022/02/19 11:30:45;;;;;;;3.35;0.90;;;;;14.80;101124.00;;;;5038126;28;20257;-81
2022/02/19 11:33:14;;;;;;;3.88;0.90;;;;;14.70;101116.00;;;;5041202;28;20578;-81
2022/02/19 11:35:43;;;;;;;2.92;0.60;;;;;14.70;101114.00;;;;5041126;28;20226;-81
2022/02/19 11:38:25;;;;;;;3.60;0.65;;;;;14.50;101139.00;;;;5035849;28;20204;-82
2022/02/19 11:40:54;;;;;;;2.78;0.80;;;;;14.60;101094.00;;;;5043544;28;20236;-82
2022/02/19 11:43:37;;;;;;;2.78;0.55;;;;;14.60;101119.00;;;;5045140;28;20707;-81
2022/02/19 11:46:34;;;;;;;1.15;0.40;;;;;14.60;101106.00;;;;5039619;28;20206;-82
2022/02/19 11:49:18;;;;;;;4.10;0.70;;;;;14.60;101121.00;;;;5034909;28;20617;-82
2022/02/19 11:51:45;;;;;;;1.63;0.30;;;;;14.60;101101.00;;;;5037314;28;20249;-82
2022/02/19 11:54:24;;;;;;;1.77;0.47;;;;;14.50;101085.00;;;;5043880;28;22228;-82
2022/02/19 11:56:51;;;;;;;3.58;0.70;;;;;14.50;101114.00;;;;5044226;28;20226;-81
2022/02/19 11:59:23;;;;;;;2.67;0.40;;;;;14.40;101090.00;;;;5049820;28;20199;-83
2022/02/19 12:02:15;;;;;;;4.10;0.57;;;;;14.20;101102.00;;;;5047891;28;20223;-81
2022/02/19 12:04:43;;;;;;;5.13;0.63;;;;;14.30;101104.00;;;;5034016;28;20255;-80
2022/02/19 12:07:15;;;;;;;1.08;0.30;;;;;14.30;101095.00;;;;5044579;28;20213;-82
2022/02/19 12:10:02;;;;;;;2.88;0.65;;;;;14.30;101077.00;;;;5050646;28;20222;-80
2022/02/19 12:12:29;;;;;;;6.05;1.05;;;;;14.50;101083.00;;;;5042089;28;20287;-80
2022/02/19 12:14:59;;;;;;;3.10;0.70;;;;;14.50;101077.00;;;;5035116;28;20245;-80
2022/02/19 12:17:44;;;;;;;2.17;0.55;;;;;14.60;101072.00;;;;5050810;28;20239;-80
2022/02/19 12:20:26;;;;;;;3.40;0.65;;;;;14.60;101078.00;;;;5048765;28;20200;-80
2022/02/19 12:22:55;;;;;;;2.60;0.77;;;;;14.80;101069.00;;;;5032602;28;20631;-79
2022/02/19 12:25:22;;;;;;;3.35;0.75;;;;;14.90;101084.00;;;;5050993;28;20231;-79
2022/02/19 12:28:14;;;;;;;0.75;0.30;;;;;14.90;101080.00;;;;5049533;28;20219;-80